sensor_id;sensor_type;location;lat;lon;timestamp;pressure;altitude;pressure_sealevel;temperature;humidity
55066;BME280;40964;42.114;24.220;2024-02-21T00:01:42;98527.91;;;5.16;94.69
55066;BME280;40964;42.114;24.220;2024-02-21T00:04:07;98526.75;;;5.19;94.11
55066;BME280;40964;42.114;24.220;2024-02-21T00:06:34;98520.91;;;5.25;93.50
55066;BME280;40964;42.114;24.220;2024-02-21T00:09:00;98523.97;;;5.28;93.56
55066;BME280;40964;42.114;24.220;2024-02-21T00:11:25;98522.19;;;5.29;93.54
55066;BME280;40964;42.114;24.220;2024-02-21T00:13:51;98520.09;;;5.32;93.59
55066;BME280;40964;42.114;24.220;2024-02-21T00:16:18;98518.28;;;5.41;91.67
55066;BME280;40964;42.114;24.220;2024-02-21T00:18:44;98527.72;;;5.34;91.53
55066;BME280;40964;42.114;24.220;2024-02-21T00:21:09;98521.53;;;5.43;92.10
55066;BME280;40964;42.114;24.220;2024-02-21T00:23:40;98521.00;;;5.48;91.51
55066;BME280;40964;42.114;24.220;2024-02-21T00:26:05;98509.44;;;5.58;91.85
55066;BME280;40964;42.114;24.220;2024-02-21T00:28:31;98516.28;;;5.51;91.37
55066;BME280;40964;42.114;24.220;2024-02-21T00:30:56;98520.38;;;5.46;92.42
55066;BME280;40964;42.114;24.220;2024-02-21T00:33:22;98506.69;;;5.44;93.44
55066;BME280;40964;42.114;24.220;2024-02-21T00:35:47;98506.34;;;5.47;93.88
55066;BME280;40964;42.114;24.220;2024-02-21T00:38:13;98496.06;;;5.53;93.52
55066;BME280;40964;42.114;24.220;2024-02-21T00:40:38;98503.41;;;5.58;93.11
55066;BME280;40964;42.114;24.220;2024-02-21T00:43:03;98503.41;;;5.58;93.26
55066;BME280;40964;42.114;24.220;2024-02-21T00:45:29;98495.53;;;5.66;93.72
55066;BME280;40964;42.114;24.220;2024-02-21T00:47:54;98500.91;;;5.73;93.00
55066;BME280;40964;42.114;24.220;2024-02-21T00:50:20;98499.25;;;5.80;92.13
55066;BME280;40964;42.114;24.220;2024-02-21T00:52:45;98492.88;;;5.82;92.07
55066;BME280;40964;42.114;24.220;2024-02-21T00:55:11;98494.81;;;5.88;91.61
55066;BME280;40964;42.114;24.220;2024-02-21T00:57:36;98493.03;;;5.89;91.52
55066;BME280;40964;42.114;24.220;2024-02-21T01:00:03;98486.66;;;5.91;91.46
55066;BME280;40964;42.114;24.220;2024-02-21T01:02:28;98496.28;;;5.99;91.57
55066;BME280;40964;42.114;24.220;2024-02-21T01:04:57;98488.13;;;6.02;91.30
55066;BME280;40964;42.114;24.220;2024-02-21T01:07:23;98493.81;;;6.06;91.33
55066;BME280;40964;42.114;24.220;2024-02-21T01:09:48;98484.03;;;6.00;91.39
55066;BME280;40964;42.114;24.220;2024-02-21T01:12:14;98488.41;;;6.07;91.66
55066;BME280;40964;42.114;24.220;2024-02-21T01:14:39;98491.00;;;6.07;91.13
55066;BME280;40964;42.114;24.220;2024-02-21T01:17:05;98492.97;;;6.13;91.70
55066;BME280;40964;42.114;24.220;2024-02-21T01:19:31;98488.53;;;6.14;91.33
55066;BME280;40964;42.114;24.220;2024-02-21T01:21:56;98488.19;;;6.17;91.43
55066;BME280;40964;42.114;24.220;2024-02-21T01:24:22;98485.41;;;6.18;91.26
55066;BME280;40964;42.114;24.220;2024-02-21T01:26:47;98477.06;;;6.23;90.41
55066;BME280;40964;42.114;24.220;2024-02-21T01:29:13;98482.56;;;6.28;90.69
55066;BME280;40964;42.114;24.220;2024-02-21T01:31:38;98488.13;;;6.33;90.01
55066;BME280;40964;42.114;24.220;2024-02-21T01:34:03;98481.91;;;6.34;89.61
55066;BME280;40964;42.114;24.220;2024-02-21T01:36:29;98478.13;;;6.37;89.45
55066;BME280;40964;42.114;24.220;2024-02-21T01:38:54;98483.34;;;6.37;89.43
55066;BME280;40964;42.114;24.220;2024-02-21T01:41:20;98475.69;;;6.35;89.80
55066;BME280;40964;42.114;24.220;2024-02-21T01:43:45;98470.13;;;6.38;89.66
55066;BME280;40964;42.114;24.220;2024-02-21T01:46:11;98467.97;;;6.42;89.43
55066;BME280;40964;42.114;24.220;2024-02-21T01:48:36;98463.25;;;6.37;89.54
55066;BME280;40964;42.114;24.220;2024-02-21T01:51:03;98464.44;;;6.35;90.04
55066;BME280;40964;42.114;24.220;2024-02-21T01:53:30;98461.81;;;6.35;90.52
55066;BME280;40964;42.114;24.220;2024-02-21T01:55:58;98454.91;;;6.42;90.29
55066;BME280;40964;42.114;24.220;2024-02-21T01:58:24;98462.41;;;6.45;90.24
55066;BME280;40964;42.114;24.220;2024-02-21T02:00:50;98460.63;;;6.37;90.21
55066;BME280;40964;42.114;24.220;2024-02-21T02:03:15;98471.63;;;6.33;90.48
55066;BME280;40964;42.114;24.220;2024-02-21T02:05:47;98465.59;;;6.32;90.24
55066;BME280;40964;42.114;24.220;2024-02-21T02:08:14;98466.75;;;6.30;90.58
55066;BME280;40964;42.114;24.220;2024-02-21T02:10:40;98462.81;;;6.34;90.44
55066;BME280;40964;42.114;24.220;2024-02-21T02:13:06;98460.38;;;6.32;90.15
55066;BME280;40964;42.114;24.220;2024-02-21T02:15:57;98471.09;;;6.37;90.16
55066;BME280;40964;42.114;24.220;2024-02-21T02:18:23;98464.16;;;6.30;89.80
55066;BME280;40964;42.114;24.220;2024-02-21T02:20:48;98467.84;;;6.35;88.94
55066;BME280;40964;42.114;24.220;2024-02-21T02:23:23;98470.28;;;6.37;89.08
55066;BME280;40964;42.114;24.220;2024-02-21T02:25:50;98466.53;;;6.39;89.35
55066;BME280;40964;42.114;24.220;2024-02-21T02:28:19;98471.22;;;6.44;89.50
55066;BME280;40964;42.114;24.220;2024-02-21T02:30:45;98465.09;;;6.29;91.04
55066;BME280;40964;42.114;24.220;2024-02-21T02:33:10;98462.22;;;6.23;91.35
55066;BME280;40964;42.114;24.220;2024-02-21T02:35:36;98447.34;;;6.24;92.40
55066;BME280;40964;42.114;24.220;2024-02-21T02:38:02;98455.00;;;6.25;92.48
55066;BME280;40964;42.114;24.220;2024-02-21T02:40:27;98450.47;;;6.19;92.57
55066;BME280;40964;42.114;24.220;2024-02-21T02:42:53;98448.22;;;6.16;93.37
55066;BME280;40964;42.114;24.220;2024-02-21T02:45:21;98443.34;;;6.13;94.20
55066;BME280;40964;42.114;24.220;2024-02-21T02:47:48;98450.22;;;6.06;94.35
55066;BME280;40964;42.114;24.220;2024-02-21T02:50:14;98438.34;;;6.04;95.03
55066;BME280;40964;42.114;24.220;2024-02-21T02:52:40;98448.88;;;6.10;94.95
55066;BME280;40964;42.114;24.220;2024-02-21T02:55:06;98445.94;;;6.13;94.54
55066;BME280;40964;42.114;24.220;2024-02-21T02:57:32;98432.25;;;6.11;94.05
55066;BME280;40964;42.114;24.220;2024-02-21T02:59:57;98444.44;;;6.19;93.25
55066;BME280;40964;42.114;24.220;2024-02-21T03:02:23;98448.53;;;6.21;92.37
55066;BME280;40964;42.114;24.220;2024-02-21T03:04:48;98438.06;;;6.21;92.35
55066;BME280;40964;42.114;24.220;2024-02-21T03:07:15;98432.25;;;6.11;92.03
55066;BME280;40964;42.114;24.220;2024-02-21T03:09:41;98426.38;;;6.09;91.46
55066;BME280;40964;42.114;24.220;2024-02-21T03:12:10;98442.63;;;6.19;91.34
55066;BME280;40964;42.114;24.220;2024-02-21T03:14:37;98434.22;;;6.09;91.58
55066;BME280;40964;42.114;24.220;2024-02-21T03:17:03;98439.44;;;6.09;91.40
55066;BME280;40964;42.114;24.220;2024-02-21T03:19:29;98428.06;;;6.02;91.88
55066;BME280;40964;42.114;24.220;2024-02-21T03:21:54;98443.66;;;6.10;91.66
55066;BME280;40964;42.114;24.220;2024-02-21T03:24:20;98438.75;;;6.15;91.66
55066;BME280;40964;42.114;24.220;2024-02-21T03:26:46;98434.16;;;6.17;91.06
55066;BME280;40964;42.114;24.220;2024-02-21T03:29:14;98435.38;;;6.07;90.54
55066;BME280;40964;42.114;24.220;2024-02-21T03:31:40;98439.31;;;6.03;90.36
55066;BME280;40964;42.114;24.220;2024-02-21T03:34:05;98446.63;;;6.07;89.82
55066;BME280;40964;42.114;24.220;2024-02-21T03:36:31;98443.78;;;6.17;89.15
55066;BME280;40964;42.114;24.220;2024-02-21T03:38:56;98445.72;;;6.23;88.71
55066;BME280;40964;42.114;24.220;2024-02-21T03:41:22;98450.41;;;6.28;88.73
55066;BME280;40964;42.114;24.220;2024-02-21T03:43:47;98447.13;;;6.34;88.00
55066;BME280;40964;42.114;24.220;2024-02-21T03:46:13;98436.22;;;6.30;88.07
55066;BME280;40964;42.114;24.220;2024-02-21T03:48:39;98453.28;;;6.41;87.54
55066;BME280;40964;42.114;24.220;2024-02-21T03:51:04;98448.56;;;6.36;88.57
55066;BME280;40964;42.114;24.220;2024-02-21T03:53:30;98455.78;;;6.34;87.51
55066;BME280;40964;42.114;24.220;2024-02-21T03:55:56;98439.97;;;6.28;88.10
55066;BME280;40964;42.114;24.220;2024-02-21T03:58:22;98455.28;;;6.39;88.51
55066;BME280;40964;42.114;24.220;2024-02-21T04:00:47;98455.53;;;6.44;88.77
55066;BME280;40964;42.114;24.220;2024-02-21T04:03:13;98457.88;;;6.39;89.21
55066;BME280;40964;42.114;24.220;2024-02-21T04:05:38;98452.75;;;6.45;89.53
55066;BME280;40964;42.114;24.220;2024-02-21T04:08:05;98455.84;;;6.49;89.45
55066;BME280;40964;42.114;24.220;2024-02-21T04:10:30;98458.16;;;6.44;89.47
55066;BME280;40964;42.114;24.220;2024-02-21T04:12:56;98448.47;;;6.30;90.01
55066;BME280;40964;42.114;24.220;2024-02-21T04:15:21;98452.47;;;6.40;89.41
55066;BME280;40964;42.114;24.220;2024-02-21T04:17:47;98451.31;;;6.43;89.43
55066;BME280;40964;42.114;24.220;2024-02-21T04:20:16;98430.50;;;6.26;89.36
55066;BME280;40964;42.114;24.220;2024-02-21T04:22:44;98463.09;;;6.39;89.02
55066;BME280;40964;42.114;24.220;2024-02-21T04:25:10;98444.00;;;6.38;88.39
55066;BME280;40964;42.114;24.220;2024-02-21T04:27:37;98422.41;;;6.21;88.41
55066;BME280;40964;42.114;24.220;2024-02-21T04:30:03;98460.50;;;6.39;88.51
55066;BME280;40964;42.114;24.220;2024-02-21T04:32:28;98459.56;;;6.32;88.85
55066;BME280;40964;42.114;24.220;2024-02-21T04:34:54;98457.00;;;6.23;87.45
55066;BME280;40964;42.114;24.220;2024-02-21T04:37:20;98458.47;;;6.18;86.83
55066;BME280;40964;42.114;24.220;2024-02-21T04:39:46;98454.88;;;6.19;87.52
55066;BME280;40964;42.114;24.220;2024-02-21T04:42:11;98456.63;;;6.26;87.41
55066;BME280;40964;42.114;24.220;2024-02-21T04:44:37;98463.16;;;6.31;86.78
55066;BME280;40964;42.114;24.220;2024-02-21T04:47:03;98468.56;;;6.29;86.80
55066;BME280;40964;42.114;24.220;2024-02-21T04:49:29;98459.06;;;6.28;87.39
55066;BME280;40964;42.114;24.220;2024-02-21T04:51:55;98458.59;;;6.24;88.14
55066;BME280;40964;42.114;24.220;2024-02-21T04:54:20;98456.34;;;6.21;88.32
55066;BME280;40964;42.114;24.220;2024-02-21T04:56:45;98466.41;;;6.33;87.67
55066;BME280;40964;42.114;24.220;2024-02-21T04:59:11;98461.81;;;6.35;87.54
55066;BME280;40964;42.114;24.220;2024-02-21T05:01:36;98470.53;;;6.19;88.71
55066;BME280;40964;42.114;24.220;2024-02-21T05:04:02;98474.91;;;6.26;88.69
55066;BME280;40964;42.114;24.220;2024-02-21T05:06:28;98479.47;;;6.33;88.47
55066;BME280;40964;42.114;24.220;2024-02-21T05:08:53;98485.16;;;6.36;88.56
55066;BME280;40964;42.114;24.220;2024-02-21T05:11:21;98471.91;;;6.38;88.52
55066;BME280;40964;42.114;24.220;2024-02-21T05:13:46;98475.88;;;6.34;88.97
55066;BME280;40964;42.114;24.220;2024-02-21T05:16:12;98461.84;;;6.26;88.40
55066;BME280;40964;42.114;24.220;2024-02-21T05:18:37;98471.75;;;6.39;87.51
55066;BME280;40964;42.114;24.220;2024-02-21T05:21:03;98479.41;;;6.41;86.82
55066;BME280;40964;42.114;24.220;2024-02-21T05:23:28;98474.25;;;6.33;86.37
55066;BME280;40964;42.114;24.220;2024-02-21T05:25:54;98481.75;;;6.28;87.16
55066;BME280;40964;42.114;24.220;2024-02-21T05:28:19;98495.19;;;6.24;87.23
55066;BME280;40964;42.114;24.220;2024-02-21T05:30:45;98499.41;;;6.25;87.21
55066;BME280;40964;42.114;24.220;2024-02-21T05:33:10;98490.94;;;6.23;87.11
55066;BME280;40964;42.114;24.220;2024-02-21T05:35:36;98500.25;;;6.18;87.62
55066;BME280;40964;42.114;24.220;2024-02-21T05:38:02;98507.66;;;6.06;88.92
55066;BME280;40964;42.114;24.220;2024-02-21T05:40:31;98500.69;;;5.98;88.76
55066;BME280;40964;42.114;24.220;2024-02-21T05:42:57;98475.75;;;5.88;88.22
55066;BME280;40964;42.114;24.220;2024-02-21T05:45:23;98500.81;;;6.05;87.88
55066;BME280;40964;42.114;24.220;2024-02-21T05:47:48;98505.19;;;6.13;88.12
55066;BME280;40964;42.114;24.220;2024-02-21T05:52:56;98504.00;;;6.23;87.68
55066;BME280;40964;42.114;24.220;2024-02-21T05:55:22;98504.81;;;6.24;87.20
55066;BME280;40964;42.114;24.220;2024-02-21T05:57:48;98510.22;;;6.22;86.90
55066;BME280;40964;42.114;24.220;2024-02-21T06:00:14;98513.44;;;6.33;86.42
55066;BME280;40964;42.114;24.220;2024-02-21T06:02:40;98509.81;;;6.34;85.82
55066;BME280;40964;42.114;24.220;2024-02-21T06:05:06;98514.00;;;6.43;86.08
55066;BME280;40964;42.114;24.220;2024-02-21T06:07:35;98509.59;;;6.43;86.08
55066;BME280;40964;42.114;24.220;2024-02-21T06:10:02;98516.94;;;6.48;86.10
55066;BME280;40964;42.114;24.220;2024-02-21T06:12:27;98528.03;;;6.50;85.74
55066;BME280;40964;42.114;24.220;2024-02-21T06:14:53;98527.03;;;6.51;84.41
55066;BME280;40964;42.114;24.220;2024-02-21T06:17:18;98525.38;;;6.58;83.60
55066;BME280;40964;42.114;24.220;2024-02-21T06:19:44;98510.13;;;6.62;83.16
55066;BME280;40964;42.114;24.220;2024-02-21T06:22:12;98521.50;;;6.77;83.08
55066;BME280;40964;42.114;24.220;2024-02-21T06:24:38;98522.88;;;6.88;80.99
55066;BME280;40964;42.114;24.220;2024-02-21T06:27:04;98530.72;;;6.88;76.70
55066;BME280;40964;42.114;24.220;2024-02-21T06:29:33;98522.44;;;6.99;78.29
55066;BME280;40964;42.114;24.220;2024-02-21T06:31:59;98530.59;;;7.04;77.82
55066;BME280;40964;42.114;24.220;2024-02-21T06:34:24;98532.44;;;7.18;77.69
55066;BME280;40964;42.114;24.220;2024-02-21T06:36:50;98534.41;;;7.16;78.63
55066;BME280;40964;42.114;24.220;2024-02-21T06:39:16;98545.88;;;7.15;79.89
55066;BME280;40964;42.114;24.220;2024-02-21T06:41:42;98531.22;;;7.06;80.07
55066;BME280;40964;42.114;24.220;2024-02-21T06:44:07;98535.84;;;7.19;79.25
55066;BME280;40964;42.114;24.220;2024-02-21T06:46:33;98545.19;;;7.21;78.51
55066;BME280;40964;42.114;24.220;2024-02-21T06:48:59;98544.81;;;7.24;78.12
55066;BME280;40964;42.114;24.220;2024-02-21T06:51:34;98547.47;;;7.39;79.41
55066;BME280;40964;42.114;24.220;2024-02-21T06:54:00;98554.19;;;7.56;78.87
55066;BME280;40964;42.114;24.220;2024-02-21T06:56:26;98549.84;;;7.63;76.09
55066;BME280;40964;42.114;24.220;2024-02-21T06:58:54;98543.91;;;7.84;74.82
55066;BME280;40964;42.114;24.220;2024-02-21T07:01:19;98539.13;;;8.03;73.87
55066;BME280;40964;42.114;24.220;2024-02-21T07:03:45;98547.44;;;8.21;74.23
55066;BME280;40964;42.114;24.220;2024-02-21T07:06:10;98535.22;;;8.43;73.38
55066;BME280;40964;42.114;24.220;2024-02-21T07:08:36;98543.16;;;8.49;72.47
55066;BME280;40964;42.114;24.220;2024-02-21T07:11:01;98530.06;;;8.49;73.04
55066;BME280;40964;42.114;24.220;2024-02-21T07:13:27;98552.81;;;8.64;72.60
55066;BME280;40964;42.114;24.220;2024-02-21T07:15:52;98506.47;;;8.35;71.29
55066;BME280;40964;42.114;24.220;2024-02-21T07:18:17;98540.72;;;8.48;71.19
55066;BME280;40964;42.114;24.220;2024-02-21T07:20:43;98548.13;;;8.44;71.15
55066;BME280;40964;42.114;24.220;2024-02-21T07:23:08;98557.06;;;8.50;72.15
55066;BME280;40964;42.114;24.220;2024-02-21T07:25:34;98550.50;;;8.39;71.49
55066;BME280;40964;42.114;24.220;2024-02-21T07:27:59;98556.28;;;8.49;71.43
55066;BME280;40964;42.114;24.220;2024-02-21T07:30:25;98554.25;;;8.51;70.32
55066;BME280;40964;42.114;24.220;2024-02-21T07:32:51;98557.50;;;8.53;70.82
55066;BME280;40964;42.114;24.220;2024-02-21T07:35:17;98555.59;;;8.62;71.82
55066;BME280;40964;42.114;24.220;2024-02-21T07:37:43;98549.88;;;8.73;69.69
55066;BME280;40964;42.114;24.220;2024-02-21T07:40:16;98558.50;;;8.89;68.38
55066;BME280;40964;42.114;24.220;2024-02-21T07:42:42;98559.84;;;8.99;67.67
55066;BME280;40964;42.114;24.220;2024-02-21T07:45:08;98561.13;;;9.10;69.01
55066;BME280;40964;42.114;24.220;2024-02-21T07:47:34;98565.47;;;9.18;67.63
55066;BME280;40964;42.114;24.220;2024-02-21T07:50:00;98561.06;;;9.25;69.39
55066;BME280;40964;42.114;24.220;2024-02-21T07:52:25;98561.50;;;9.28;68.48
55066;BME280;40964;42.114;24.220;2024-02-21T07:54:51;98557.44;;;9.26;70.19
55066;BME280;40964;42.114;24.220;2024-02-21T07:57:16;98550.06;;;9.15;67.23
55066;BME280;40964;42.114;24.220;2024-02-21T07:59:42;98557.44;;;9.26;68.47
55066;BME280;40964;42.114;24.220;2024-02-21T08:02:07;98559.91;;;9.34;66.21
55066;BME280;40964;42.114;24.220;2024-02-21T08:04:33;98555.25;;;9.57;66.32
55066;BME280;40964;42.114;24.220;2024-02-21T08:06:58;98554.13;;;9.66;66.59
55066;BME280;40964;42.114;24.220;2024-02-21T08:09:26;98556.41;;;9.76;67.60
55066;BME280;40964;42.114;24.220;2024-02-21T08:11:53;98557.25;;;9.83;67.54
55066;BME280;40964;42.114;24.220;2024-02-21T08:14:19;98557.97;;;9.99;66.42
55066;BME280;40964;42.114;24.220;2024-02-21T08:16:44;98557.72;;;9.93;63.78
55066;BME280;40964;42.114;24.220;2024-02-21T08:19:10;98559.81;;;10.05;62.98
55066;BME280;40964;42.114;24.220;2024-02-21T08:21:36;98553.31;;;10.01;62.91
55066;BME280;40964;42.114;24.220;2024-02-21T08:24:01;98553.78;;;10.11;63.02
55066;BME280;40964;42.114;24.220;2024-02-21T08:26:27;98557.25;;;10.18;61.45
55066;BME280;40964;42.114;24.220;2024-02-21T08:28:55;98557.25;;;10.18;60.77
55066;BME280;40964;42.114;24.220;2024-02-21T08:31:24;98567.13;;;10.09;61.53
55066;BME280;40964;42.114;24.220;2024-02-21T08:33:59;98549.44;;;9.90;61.42
55066;BME280;40964;42.114;24.220;2024-02-21T08:36:34;98567.31;;;10.08;60.06
55066;BME280;40964;42.114;24.220;2024-02-21T08:39:01;98551.41;;;9.81;60.31
55066;BME280;40964;42.114;24.220;2024-02-21T08:41:30;98547.38;;;9.85;62.41
55066;BME280;40964;42.114;24.220;2024-02-21T08:43:56;98558.38;;;10.02;61.57
55066;BME280;40964;42.114;24.220;2024-02-21T08:46:25;98563.59;;;9.95;61.71
55066;BME280;40964;42.114;24.220;2024-02-21T08:48:51;98557.81;;;10.07;61.21
55066;BME280;40964;42.114;24.220;2024-02-21T08:51:16;98558.78;;;9.99;60.28
55066;BME280;40964;42.114;24.220;2024-02-21T08:53:43;98559.16;;;9.96;60.56
55066;BME280;40964;42.114;24.220;2024-02-21T08:56:09;98575.56;;;9.98;60.69
55066;BME280;40964;42.114;24.220;2024-02-21T08:58:35;98558.78;;;10.06;59.45
55066;BME280;40964;42.114;24.220;2024-02-21T09:01:03;98556.94;;;10.28;59.89
55066;BME280;40964;42.114;24.220;2024-02-21T09:03:31;98549.53;;;10.44;60.96
55066;BME280;40964;42.114;24.220;2024-02-21T09:05:57;98560.94;;;10.71;58.28
55066;BME280;40964;42.114;24.220;2024-02-21T09:08:22;98553.88;;;10.85;56.78
55066;BME280;40964;42.114;24.220;2024-02-21T09:10:49;98563.41;;;10.79;57.42
55066;BME280;40964;42.114;24.220;2024-02-21T09:13:14;98563.56;;;10.78;58.34
55066;BME280;40964;42.114;24.220;2024-02-21T09:15:40;98563.00;;;10.96;57.75
55066;BME280;40964;42.114;24.220;2024-02-21T09:18:05;98564.47;;;11.18;56.40
55066;BME280;40964;42.114;24.220;2024-02-21T09:20:31;98552.09;;;11.12;55.66
55066;BME280;40964;42.114;24.220;2024-02-21T09:22:57;98550.88;;;11.01;55.83
55066;BME280;40964;42.114;24.220;2024-02-21T09:25:22;98553.50;;;11.01;54.98
55066;BME280;40964;42.114;24.220;2024-02-21T09:27:48;98539.94;;;11.04;56.27
55066;BME280;40964;42.114;24.220;2024-02-21T09:30:13;98539.94;;;10.98;53.55
55066;BME280;40964;42.114;24.220;2024-02-21T09:32:39;98539.53;;;11.01;54.03
55066;BME280;40964;42.114;24.220;2024-02-21T09:35:05;98548.66;;;11.31;52.89
55066;BME280;40964;42.114;24.220;2024-02-21T09:37:31;98541.38;;;11.40;50.81
55066;BME280;40964;42.114;24.220;2024-02-21T09:39:56;98534.91;;;11.43;52.37
55066;BME280;40964;42.114;24.220;2024-02-21T09:42:34;98530.63;;;11.55;51.34
55066;BME280;40964;42.114;24.220;2024-02-21T09:45:03;98532.63;;;11.86;52.22
55066;BME280;40964;42.114;24.220;2024-02-21T09:47:46;98523.06;;;12.05;50.54
55066;BME280;40964;42.114;24.220;2024-02-21T09:50:16;98526.44;;;12.25;51.21
55066;BME280;40964;42.114;24.220;2024-02-21T09:52:44;98528.19;;;12.44;50.17
55066;BME280;40964;42.114;24.220;2024-02-21T09:55:10;98528.16;;;12.51;49.82
55066;BME280;40964;42.114;24.220;2024-02-21T09:57:39;98520.16;;;12.26;48.73
55066;BME280;40964;42.114;24.220;2024-02-21T10:00:05;98523.59;;;12.27;49.05
55066;BME280;40964;42.114;24.220;2024-02-21T10:02:33;98526.75;;;12.48;48.27
55066;BME280;40964;42.114;24.220;2024-02-21T10:04:59;98525.22;;;12.66;49.58
55066;BME280;40964;42.114;24.220;2024-02-21T10:07:24;98518.44;;;12.83;48.81
55066;BME280;40964;42.114;24.220;2024-02-21T10:10:03;98513.16;;;13.15;48.48
55066;BME280;40964;42.114;24.220;2024-02-21T10:12:29;98518.34;;;13.28;47.86
55066;BME280;40964;42.114;24.220;2024-02-21T10:15:05;98499.88;;;12.96;47.54
55066;BME280;40964;42.114;24.220;2024-02-21T10:17:32;98511.09;;;13.17;47.84
55066;BME280;40964;42.114;24.220;2024-02-21T10:20:10;98505.00;;;13.16;48.76
55066;BME280;40964;42.114;24.220;2024-02-21T10:22:37;98506.03;;;13.15;49.07
55066;BME280;40964;42.114;24.220;2024-02-21T10:25:11;98501.38;;;13.11;50.19
55066;BME280;40964;42.114;24.220;2024-02-21T10:27:38;98492.59;;;12.92;50.10
55066;BME280;40964;42.114;24.220;2024-02-21T10:30:05;98498.13;;;12.52;48.68
55066;BME280;40964;42.114;24.220;2024-02-21T10:32:31;98493.47;;;12.47;51.58
55066;BME280;40964;42.114;24.220;2024-02-21T10:35:06;98483.63;;;12.68;48.92
55066;BME280;40964;42.114;24.220;2024-02-21T10:37:31;98485.13;;;12.82;48.42
55066;BME280;40964;42.114;24.220;2024-02-21T10:40:00;98469.41;;;12.94;47.92
55066;BME280;40964;42.114;24.220;2024-02-21T10:42:29;98466.41;;;13.15;47.99
55066;BME280;40964;42.114;24.220;2024-02-21T10:45:00;98469.59;;;13.49;48.15
55066;BME280;40964;42.114;24.220;2024-02-21T10:47:31;98462.59;;;13.36;47.45
55066;BME280;40964;42.114;24.220;2024-02-21T10:50:02;98457.69;;;12.90;47.09
55066;BME280;40964;42.114;24.220;2024-02-21T10:52:48;98450.88;;;12.75;48.05
55066;BME280;40964;42.114;24.220;2024-02-21T10:55:20;98447.53;;;12.62;48.02
55066;BME280;40964;42.114;24.220;2024-02-21T10:57:50;98436.38;;;12.60;48.03
55066;BME280;40964;42.114;24.220;2024-02-21T11:00:17;98439.09;;;12.78;47.14
55066;BME280;40964;42.114;24.220;2024-02-21T11:02:44;98435.31;;;12.92;46.80
55066;BME280;40964;42.114;24.220;2024-02-21T11:05:11;98434.94;;;13.14;47.65
55066;BME280;40964;42.114;24.220;2024-02-21T11:07:37;98431.31;;;13.08;46.47
55066;BME280;40964;42.114;24.220;2024-02-21T11:10:03;98439.06;;;13.53;45.67
55066;BME280;40964;42.114;24.220;2024-02-21T11:12:32;98434.00;;;13.51;43.83
55066;BME280;40964;42.114;24.220;2024-02-21T11:15:07;98413.91;;;13.00;46.19
55066;BME280;40964;42.114;24.220;2024-02-21T11:17:33;98428.16;;;13.24;46.02
55066;BME280;40964;42.114;24.220;2024-02-21T11:19:58;98434.59;;;13.72;45.28
55066;BME280;40964;42.114;24.220;2024-02-21T11:22:25;98422.44;;;13.82;43.17
55066;BME280;40964;42.114;24.220;2024-02-21T11:24:54;98413.94;;;13.80;43.53
55066;BME280;40964;42.114;24.220;2024-02-21T11:27:22;98416.50;;;13.87;44.18
55066;BME280;40964;42.114;24.220;2024-02-21T11:29:55;98414.00;;;13.55;43.22
55066;BME280;40964;42.114;24.220;2024-02-21T11:32:22;98414.00;;;13.55;44.59
55066;BME280;40964;42.114;24.220;2024-02-21T11:34:57;98426.38;;;13.61;43.31
55066;BME280;40964;42.114;24.220;2024-02-21T11:37:34;98372.63;;;13.68;42.36
55066;BME280;40964;42.114;24.220;2024-02-21T11:40:02;98406.31;;;14.20;42.21
55066;BME280;40964;42.114;24.220;2024-02-21T11:42:29;98397.78;;;14.18;41.73
55066;BME280;40964;42.114;24.220;2024-02-21T11:44:56;98399.84;;;14.46;40.43
55066;BME280;40964;42.114;24.220;2024-02-21T11:47:24;98388.56;;;14.39;42.44
55066;BME280;40964;42.114;24.220;2024-02-21T11:49:50;98399.19;;;14.51;40.58
55066;BME280;40964;42.114;24.220;2024-02-21T11:52:22;98386.44;;;14.60;43.71
55066;BME280;40964;42.114;24.220;2024-02-21T11:54:50;98389.66;;;14.73;42.18
55066;BME280;40964;42.114;24.220;2024-02-21T11:57:17;98394.91;;;13.90;40.82
55066;BME280;40964;42.114;24.220;2024-02-21T11:59:44;98387.72;;;13.97;41.00
55066;BME280;40964;42.114;24.220;2024-02-21T12:02:11;98393.28;;;13.89;41.16
55066;BME280;40964;42.114;24.220;2024-02-21T12:04:37;98372.78;;;14.03;42.11
55066;BME280;40964;42.114;24.220;2024-02-21T12:07:03;98373.41;;;14.16;41.57
55066;BME280;40964;42.114;24.220;2024-02-21T12:09:31;98369.34;;;14.02;40.23
55066;BME280;40964;42.114;24.220;2024-02-21T12:14:24;98362.91;;;14.10;40.99
55066;BME280;40964;42.114;24.220;2024-02-21T12:16:50;98345.25;;;14.22;42.60
55066;BME280;40964;42.114;24.220;2024-02-21T12:19:15;98356.19;;;13.96;41.35
55066;BME280;40964;42.114;24.220;2024-02-21T12:21:42;98358.91;;;14.19;41.42
55066;BME280;40964;42.114;24.220;2024-02-21T12:24:34;98355.28;;;14.02;41.53
55066;BME280;40964;42.114;24.220;2024-02-21T12:27:00;98344.59;;;14.38;41.56
55066;BME280;40964;42.114;24.220;2024-02-21T12:29:28;98328.78;;;14.50;41.71
55066;BME280;40964;42.114;24.220;2024-02-21T12:31:55;98340.03;;;14.45;42.12
55066;BME280;40964;42.114;24.220;2024-02-21T12:34:20;98342.38;;;14.24;41.52
55066;BME280;40964;42.114;24.220;2024-02-21T12:36:47;98341.63;;;14.05;41.80
55066;BME280;40964;42.114;24.220;2024-02-21T12:39:13;98328.69;;;13.85;40.92
55066;BME280;40964;42.114;24.220;2024-02-21T12:41:39;98341.19;;;13.78;41.36
55066;BME280;40964;42.114;24.220;2024-02-21T12:44:06;98337.75;;;13.59;41.29
55066;BME280;40964;42.114;24.220;2024-02-21T12:46:35;98330.84;;;13.76;41.85
55066;BME280;40964;42.114;24.220;2024-02-21T12:49:04;98336.47;;;13.80;42.42
55066;BME280;40964;42.114;24.220;2024-02-21T12:51:33;98331.78;;;13.63;41.45
55066;BME280;40964;42.114;24.220;2024-02-21T12:53:59;98332.16;;;13.67;42.67
55066;BME280;40964;42.114;24.220;2024-02-21T12:56:25;98323.81;;;13.82;42.59
55066;BME280;40964;42.114;24.220;2024-02-21T12:58:55;98322.94;;;13.58;42.39
55066;BME280;40964;42.114;24.220;2024-02-21T13:01:21;98306.72;;;13.36;43.34